Time,TemperatureF,DewpointF,PressureIn,WindDirection,WindDirectionDegrees,WindSpeedMPH,WindSpeedGustMPH,Humidity,HourlyPrecipIn,Conditions,Clouds,dailyrainin,SoftwareType,DateUTC
2013-01-20 00:00:00,40.6,33.6,29.72,WSW,248,15.0,25.0,76,0.00,,---,0.00,VWS V14.01,2013-01-20 05:00:00,
2013-01-20 00:30:00,40.1,30.8,29.72,WSW,248,17.0,30.0,69,0.00,,---,0.00,VWS V14.01,2013-01-20 05:30:00,
2013-01-20 01:00:00,38.9,30.3,29.72,WSW,248,14.0,27.0,71,0.00,,---,0.00,VWS V14.01,2013-01-20 06:00:00,
2013-01-20 01:30:00,37.7,25.9,29.74,WSW,248,17.0,29.0,62,0.00,,---,0.00,VWS V14.01,2013-01-20 06:30:00,
2013-01-20 02:00:00,36.5,22.3,29.77,WSW,248,18.0,31.0,56,0.00,,---,0.00,VWS V14.01,2013-01-20 07:00:00,
2013-01-20 02:30:00,32.8,18.4,29.82,West,270,17.0,32.0,55,0.00,,---,0.00,VWS V14.01,2013-01-20 07:30:00,
2013-01-20 03:00:00,29.4,16.5,29.87,WNW,292,17.0,31.0,58,0.00,,---,0.00,VWS V14.01,2013-01-20 08:00:00,
2013-01-20 03:30:00,28.4,17.8,29.90,WNW,292,14.0,24.0,64,0.00,,---,0.00,VWS V14.01,2013-01-20 08:30:00,
2013-01-20 04:00:00,27.4,17.2,29.92,West,270,13.0,23.0,65,0.00,,---,0.00,VWS V14.01,2013-01-20 09:00:00,
2013-01-20 04:30:00,26.2,16.4,29.93,WNW,292,14.0,25.0,66,0.00,,---,0.00,VWS V14.01,2013-01-20 09:30:00,
2013-01-20 05:00:00,25.2,16.1,29.95,WNW,292,12.0,24.0,68,0.00,,---,0.00,VWS V14.01,2013-01-20 10:00:00,
2013-01-20 05:30:00,24.5,16.5,29.97,WNW,292,11.0,21.0,71,0.00,,---,0.00,VWS V14.01,2013-01-20 10:30:00,
2013-01-20 06:00:00,23.5,15.2,29.99,WNW,292,15.0,24.0,70,0.00,,---,0.00,VWS V14.01,2013-01-20 11:00:00,
2013-01-20 06:30:00,22.5,13.6,30.01,WNW,292,14.0,27.0,68,0.00,,---,0.00,VWS V14.01,2013-01-20 11:30:00,
2013-01-20 07:00:00,21.9,14.6,30.03,WNW,292,14.0,25.0,73,0.00,,---,0.00,VWS V14.01,2013-01-20 12:00:00,
2013-01-20 07:30:00,21.4,15.9,30.06,WNW,292,12.0,22.0,79,0.00,,---,0.00,VWS V14.01,2013-01-20 12:30:00,
2013-01-20 08:00:00,19.7,14.8,30.08,NW,315,10.0,19.0,81,0.00,,---,0.00,VWS V14.01,2013-01-20 13:00:00,
2013-01-20 08:30:00,19.1,13.1,30.11,WNW,292,11.0,21.0,77,0.00,,---,0.00,VWS V14.01,2013-01-20 13:30:00,
2013-01-20 09:00:00,18.3,11.7,30.13,WNW,292,12.0,18.0,75,0.00,,---,0.00,VWS V14.01,2013-01-20 14:00:00,
2013-01-20 09:30:00,18.2,11.6,30.16,NW,315,10.0,19.0,75,0.00,,---,0.00,VWS V14.01,2013-01-20 14:30:00,
2013-01-20 10:00:00,18.6,11.7,30.17,NW,315,11.0,19.0,74,0.00,,---,0.00,VWS V14.01,2013-01-20 15:00:00,
2013-01-20 10:30:00,18.8,11.9,30.19,NW,315,11.0,20.0,74,0.00,,---,0.00,VWS V14.01,2013-01-20 15:30:00,
2013-01-20 11:00:00,19.3,12.7,30.20,WNW,292,9.0,16.0,75,0.00,,---,0.00,VWS V14.01,2013-01-20 16:00:00,
2013-01-20 11:30:00,19.9,12.7,30.20,NW,315,9.0,15.0,73,0.00,,---,0.00,VWS V14.01,2013-01-20 16:30:00,
2013-01-20 12:00:00,21.1,14.4,30.19,WNW,292,9.0,14.0,75,0.00,,---,0.00,VWS V14.01,2013-01-20 17:00:00,
2013-01-20 12:30:00,20.3,13.4,30.18,WNW,292,9.0,15.0,74,0.00,,---,0.00,VWS V14.01,2013-01-20 17:30:00,
2013-01-20 13:00:00,21.7,14.1,30.17,WNW,292,9.0,16.0,72,0.00,,---,0.00,VWS V14.01,2013-01-20 18:00:00,
2013-01-20 13:30:00,20.9,13.6,30.16,WNW,292,9.0,16.0,73,0.00,,---,0.00,VWS V14.01,2013-01-20 18:30:00,
2013-01-20 14:00:00,20.8,12.9,30.17,West,270,9.0,15.0,71,0.00,,---,0.00,VWS V14.01,2013-01-20 19:00:00,
2013-01-20 14:30:00,20.7,13.4,30.17,WNW,292,9.0,16.0,73,0.00,,---,0.00,VWS V14.01,2013-01-20 19:30:00,
2013-01-20 15:00:00,20.3,12.1,30.18,WNW,292,9.0,16.0,70,0.00,,---,0.00,VWS V14.01,2013-01-20 20:00:00,
2013-01-20 15:30:00,20.7,12.1,30.18,WNW,292,8.0,14.0,69,0.00,,---,0.00,VWS V14.01,2013-01-20 20:30:00,
2013-01-20 16:00:00,20.9,12.0,30.18,West,270,8.0,15.0,68,0.00,,---,0.00,VWS V14.01,2013-01-20 21:00:00,
2013-01-20 16:30:00,20.8,12.9,30.18,NW,315,7.0,13.0,71,0.00,,---,0.00,VWS V14.01,2013-01-20 21:30:00,
2013-01-20 17:00:00,20.4,12.5,30.19,WNW,292,7.0,12.0,71,0.00,,---,0.00,VWS V14.01,2013-01-20 22:00:00,
2013-01-20 17:30:00,20.0,12.4,30.19,WNW,292,5.0,11.0,72,0.00,,---,0.00,VWS V14.01,2013-01-20 22:30:00,
2013-01-20 18:00:00,19.5,12.3,30.19,WNW,292,5.0,11.0,73,0.00,,---,0.00,VWS V14.01,2013-01-20 23:00:00,
2013-01-20 18:30:00,19.5,11.6,30.20,WNW,292,6.0,12.0,71,0.00,,---,0.00,VWS V14.01,2013-01-20 23:30:00,
2013-01-20 19:00:00,19.2,11.0,30.20,WNW,292,6.0,11.0,70,0.00,,---,0.00,VWS V14.01,2013-01-21 00:00:00,
2013-01-20 19:30:00,18.6,10.5,30.20,West,270,6.0,12.0,70,0.00,,---,0.00,VWS V14.01,2013-01-21 00:30:00,
2013-01-20 20:00:00,18.3,10.5,30.19,West,270,6.0,11.0,71,0.00,,---,0.00,VWS V14.01,2013-01-21 01:00:00,
2013-01-20 20:30:00,17.7,10.2,30.19,WSW,248,4.0,8.0,72,0.00,,---,0.00,VWS V14.01,2013-01-21 01:30:00,
2013-01-20 21:00:00,17.4,9.9,30.19,WSW,248,3.0,6.0,72,0.00,,---,0.00,VWS V14.01,2013-01-21 02:00:00,
2013-01-20 21:30:00,17.3,10.4,30.18,West,270,3.0,5.0,74,0.00,,---,0.00,VWS V14.01,2013-01-21 02:30:00,
2013-01-20 22:00:00,18.2,11.0,30.17,WSW,248,3.0,6.0,73,0.00,,---,0.00,VWS V14.01,2013-01-21 03:00:00,
2013-01-20 22:30:00,18.4,11.5,30.17,WSW,248,3.0,5.0,74,0.00,,---,0.00,VWS V14.01,2013-01-21 03:30:00,
2013-01-20 23:00:00,18.2,11.3,30.17,WSW,248,3.0,6.0,74,0.00,,---,0.00,VWS V14.01,2013-01-21 04:00:00,
2013-01-20 23:30:00,18.6,11.4,30.16,WSW,248,4.0,7.0,73,0.00,,---,0.00,VWS V14.01,2013-01-21 04:30:00,